Time;durP1;ratioP1;P1;durP2;ratioP2;P2;SDS_P1;SDS_P2;PMS_P1;PMS_P2;Temp;Humidity;BMP_temperature;BMP_pressure;BME280_temperature;BME280_humidity;BME280_pressure;Samples;Min_cycle;Max_cycle;Signal;HPM_P1;HPM_P2
2021/04/21 00:02:24;;;;;;;5.00;1.50;;;;;;;16.55;64.24;100183.47;4966961;28;20045;-70
2021/04/21 00:04:52;;;;;;;4.20;1.57;;;;;;;16.58;64.40;100196.88;4969686;28;20062;-69
2021/04/21 00:07:21;;;;;;;2.37;1.27;;;;;;;16.26;64.46;100142.63;4964218;28;20043;-70
2021/04/21 00:09:48;;;;;;;5.57;1.30;;;;;;;16.63;64.24;100193.09;4968897;28;20066;-69
2021/04/21 00:12:19;;;;;;;3.23;1.40;;;;;;;16.62;64.09;100197.91;4965014;28;20043;-70
2021/04/21 00:14:47;;;;;;;4.97;1.60;;;;;;;16.57;64.24;100196.06;4961096;28;20050;-73
2021/04/21 00:17:13;;;;;;;3.10;1.60;;;;;;;16.58;64.02;100192.09;4969510;28;20133;-76
2021/04/21 00:19:42;;;;;;;2.23;1.00;;;;;;;16.59;63.95;100182.47;4962618;28;20392;-75
2021/04/21 00:22:10;;;;;;;2.73;1.00;;;;;;;16.56;63.91;100176.69;4967356;28;20507;-70
2021/04/21 00:24:39;;;;;;;0.77;0.70;;;;;;;16.62;63.64;100183.00;4964521;28;20043;-71
2021/04/21 00:27:07;;;;;;;2.13;1.30;;;;;;;16.61;63.52;100186.94;4962370;28;20531;-70
2021/04/21 00:29:39;;;;;;;2.27;0.80;;;;;;;16.59;63.42;100181.66;4968240;28;20054;-70
2021/04/21 00:32:07;;;;;;;2.93;1.10;;;;;;;16.51;63.62;100169.22;4962455;28;20058;-72
2021/04/21 00:34:36;;;;;;;2.80;1.10;;;;;;;16.50;63.63;100164.72;4958773;28;20047;-71
2021/04/21 00:37:04;;;;;;;1.70;1.20;;;;;;;16.47;63.68;100159.75;4963245;28;20189;-72
2021/04/21 00:39:33;;;;;;;4.83;1.60;;;;;;;16.55;63.34;100163.75;4967314;28;20050;-70
2021/04/21 00:42:19;;;;;;;1.60;0.83;;;;;;;16.58;63.23;100171.50;4926079;29;20047;-68
2021/04/21 00:44:58;;;;;;;1.40;0.80;;;;;;;16.51;63.24;100157.09;4926528;29;20052;-70
2021/04/21 00:47:35;;;;;;;3.63;1.00;;;;;;;16.56;63.45;100159.75;4923043;29;20071;-72
2021/04/21 00:50:12;;;;;;;2.53;1.10;;;;;;;16.46;63.42;100137.53;4923141;29;20079;-73
2021/04/21 00:52:52;;;;;;;3.17;0.90;;;;;;;16.44;63.02;100122.94;4925987;29;20052;-70
2021/04/21 00:55:27;;;;;;;2.55;1.17;;;;;;;16.47;63.06;100122.28;4917385;29;20054;-70
2021/04/21 00:58:43;;;;;;;2.90;0.93;;;;;;;16.47;62.86;100123.09;4927241;29;20706;-67
2021/04/21 01:01:11;;;;;;;4.03;1.03;;;;;;;16.49;62.75;100125.59;4911393;29;20051;-69
2021/04/21 01:03:41;;;;;;;1.73;1.20;;;;;;;15.96;63.01;100037.38;4922993;29;20195;-67
2021/04/21 01:06:12;;;;;;;2.23;1.00;;;;;;;16.43;62.87;100116.47;4923085;29;20040;-67
2021/04/21 01:08:47;;;;;;;4.30;1.70;;;;;;;16.43;62.70;100121.28;4924404;29;20054;-67
2021/04/21 01:11:35;;;;;;;3.47;1.30;;;;;;;16.33;62.76;100102.69;4921373;29;20055;-68
2021/04/21 01:14:07;;;;;;;2.10;1.10;;;;;;;15.98;62.49;100059.59;4921704;29;20058;-70
2021/04/21 01:16:36;;;;;;;4.80;1.07;;;;;;;16.25;62.92;100098.72;4918436;29;20180;-66
2021/04/21 01:19:25;;;;;;;2.17;1.07;;;;;;;16.28;62.72;100109.34;4928515;29;20052;-73
2021/04/21 01:21:55;;;;;;;2.23;1.07;;;;;;;16.05;62.70;100082.47;4920639;29;20048;-72
2021/04/21 01:24:54;;;;;;;3.30;1.50;;;;;;;16.20;62.77;100107.31;4920056;29;20071;-70
2021/04/21 01:27:25;;;;;;;3.43;1.37;;;;;;;16.16;63.03;100095.06;4921089;29;20052;-71
2021/04/21 01:29:55;;;;;;;3.83;1.40;;;;;;;16.14;63.06;100097.41;4921661;29;20052;-70
2021/04/21 01:32:28;;;;;;;1.40;1.13;;;;;;;16.08;63.08;100093.06;4919999;29;20052;-69
2021/04/21 01:34:56;;;;;;;1.73;1.23;;;;;;;16.13;63.35;100095.72;4920552;29;20429;-70
2021/04/21 01:37:31;;;;;;;1.83;1.20;;;;;;;16.02;63.38;100086.75;4921146;29;20058;-69
2021/04/21 01:40:06;;;;;;;4.63;1.87;;;;;;;16.11;63.42;100098.03;4932987;28;20055;-69
2021/04/21 01:42:35;;;;;;;5.63;2.93;;;;;;;16.13;63.38;100083.63;4959984;28;20047;-70
2021/04/21 01:45:06;;;;;;;3.57;2.67;;;;;;;16.15;63.67;100090.59;4963396;28;20053;-70
2021/04/21 01:47:32;;;;;;;3.92;2.30;;;;;;;16.15;63.47;100079.31;4959311;28;20046;-69
2021/04/21 01:50:04;;;;;;;5.33;2.00;;;;;;;16.14;63.82;100079.63;4954778;28;20051;-70
2021/04/21 01:53:09;;;;;;;7.23;1.80;;;;;;;16.15;63.41;100090.59;4957296;28;20062;-69
2021/04/21 01:55:44;;;;;;;3.90;1.57;;;;;;;16.16;63.61;100083.78;4959857;28;20054;-69
2021/04/21 01:58:24;;;;;;;2.93;1.60;;;;;;;16.17;63.23;100068.56;4956189;28;20048;-69
2021/04/21 02:00:55;;;;;;;4.60;2.13;;;;;;;16.18;63.41;100075.84;4958621;28;20042;-69
2021/04/21 02:03:31;;;;;;;4.40;2.07;;;;;;;16.14;63.61;100063.59;4960539;28;20054;-69
2021/04/21 02:06:15;;;;;;;2.63;1.70;;;;;;;16.19;63.50;100069.03;4961345;28;20230;-69
2021/04/21 02:08:56;;;;;;;3.03;1.60;;;;;;;16.22;63.53;100059.13;4956895;28;20051;-69
2021/04/21 02:11:25;;;;;;;4.50;2.07;;;;;;;16.26;63.57;100065.75;4959211;28;20441;-69
2021/04/21 02:14:10;;;;;;;3.87;2.07;;;;;;;16.25;63.66;100064.09;4960745;28;20051;-69
2021/04/21 02:16:42;;;;;;;2.53;1.63;;;;;;;16.24;63.64;100054.81;4963073;28;20043;-68
2021/04/21 02:19:24;;;;;;;3.73;2.13;;;;;;;16.20;63.99;100055.78;4964495;28;20047;-76
2021/04/21 02:22:04;;;;;;;3.50;2.00;;;;;;;16.17;63.95;100053.63;4961297;28;20050;-74
2021/04/21 02:24:33;;;;;;;;;;;;;;;16.18;63.59;100050.50;4960524;28;20051;-72
2021/04/21 02:27:19;;;;;;;4.23;2.07;;;;;;;16.13;63.98;100052.63;4962890;28;19922;-73
2021/04/21 02:29:55;;;;;;;5.50;1.90;;;;;;;16.08;64.28;100039.56;4955775;28;20062;-72
2021/04/21 02:32:44;;;;;;;4.47;2.53;;;;;;;16.11;64.20;100056.63;4963249;28;20424;-73
2021/04/21 02:35:21;;;;;;;4.22;1.85;;;;;;;15.95;64.23;100015.19;4958723;28;20476;-71
2021/04/21 02:37:53;;;;;;;3.73;2.10;;;;;;;16.13;64.44;100045.00;4955513;28;20043;-70
2021/04/21 02:40:36;;;;;;;4.00;2.47;;;;;;;16.10;64.26;100051.28;4958764;28;20058;-71
2021/04/21 02:43:16;;;;;;;3.43;2.13;;;;;;;16.04;64.21;100030.94;4955503;28;20488;-73
2021/04/21 02:45:54;;;;;;;4.28;1.80;;;;;;;16.13;64.23;100045.00;4964997;28;20050;-71
2021/04/21 02:48:42;;;;;;;5.07;2.10;;;;;;;15.86;63.88;99990.66;4963122;28;20051;-70
2021/04/21 02:51:22;;;;;;;5.27;2.57;;;;;;;16.18;64.08;100041.22;4963450;28;20050;-70
2021/04/21 02:54:01;;;;;;;5.27;2.20;;;;;;;16.10;63.93;100026.81;4958258;28;20058;-71
2021/04/21 02:56:39;;;;;;;6.33;2.50;;;;;;;16.15;64.01;100028.63;4961237;28;20047;-71
2021/04/21 02:59:20;;;;;;;3.37;2.17;;;;;;;16.25;63.99;100052.81;4959523;28;20053;-70
2021/04/21 03:02:02;;;;;;;6.37;2.00;;;;;;;16.24;64.09;100046.38;4957439;28;20055;-69
2021/04/21 03:04:40;;;;;;;3.90;1.33;;;;;;;16.07;64.20;100035.09;4960950;28;20042;-71
2021/04/21 03:07:13;;;;;;;6.03;1.83;;;;;;;16.04;64.15;100044.19;4960079;28;20054;-75
2021/04/21 03:10:04;;;;;;;3.30;2.13;;;;;;;15.98;64.35;100046.31;4957410;28;20059;-74
2021/04/21 03:12:33;;;;;;;4.57;2.43;;;;;;;15.94;64.30;100055.78;4956679;28;20046;-74
2021/04/21 03:15:12;;;;;;;7.53;2.15;;;;;;;15.85;64.70;100053.75;4957569;28;20575;-76
2021/04/21 03:17:42;;;;;;;2.88;1.67;;;;;;;15.79;64.59;100045.78;4955030;28;20151;-73
2021/04/21 03:20:13;;;;;;;8.75;2.55;;;;;;;15.82;64.54;100047.94;4957477;28;20055;-73
2021/04/21 03:22:43;;;;;;;4.43;2.00;;;;;;;15.80;64.27;100051.09;4957765;28;20482;-74
2021/04/21 03:25:13;;;;;;;3.80;1.90;;;;;;;15.69;64.35;100041.31;4961006;28;20048;-68
2021/04/21 03:27:45;;;;;;;5.25;2.42;;;;;;;15.70;64.50;100057.03;4960539;28;20050;-72
2021/04/21 03:30:15;;;;;;;2.47;1.70;;;;;;;15.64;64.63;100049.88;4963990;28;20057;-73
2021/04/21 03:32:49;;;;;;;4.00;1.95;;;;;;;15.47;64.53;100033.75;4953844;28;20051;-72
2021/04/21 03:35:17;;;;;;;4.97;2.30;;;;;;;15.53;64.76;100026.00;4956764;28;20058;-79
2021/04/21 03:37:43;;;;;;;5.20;1.87;;;;;;;15.59;64.73;100052.84;4967514;28;20045;-72
2021/04/21 03:40:10;;;;;;;8.17;2.63;;;;;;;15.49;64.92;100030.63;4959913;28;20050;-68
2021/04/21 03:42:38;;;;;;;6.67;2.47;;;;;;;15.53;65.04;100043.72;4958681;28;20526;-69
2021/04/21 03:45:05;;;;;;;4.87;2.13;;;;;;;15.47;65.26;100044.19;4956643;28;20074;-70
2021/04/21 03:47:33;;;;;;;3.83;2.17;;;;;;;15.35;65.12;100034.41;4964270;28;20055;-73
2021/04/21 03:50:01;;;;;;;5.83;2.20;;;;;;;15.33;65.31;100033.88;4956536;28;20165;-72
2021/04/21 03:52:28;;;;;;;3.43;1.93;;;;;;;15.32;65.39;100034.22;4960792;28;20062;-72
2021/04/21 03:54:58;;;;;;;4.88;2.25;;;;;;;15.26;65.39;100021.44;4963065;28;20413;-73
2021/04/21 03:57:29;;;;;;;4.63;2.63;;;;;;;15.21;65.61;100030.84;4963635;28;20062;-71
2021/04/21 03:59:59;;;;;;;4.90;2.50;;;;;;;15.20;65.64;100022.72;4961345;28;20061;-73
2021/04/21 04:02:26;;;;;;;3.72;2.20;;;;;;;15.02;65.79;100004.97;4959034;28;20062;-72
2021/04/21 04:04:58;;;;;;;3.17;2.10;;;;;;;15.10;66.00;100018.22;4962415;28;20602;-77
2021/04/21 04:07:35;;;;;;;5.33;2.10;;;;;;;14.93;66.20;100002.91;4962308;28;20472;-76
2021/04/21 04:10:04;;;;;;;5.90;2.53;;;;;;;15.08;66.20;100035.44;4959060;28;20051;-77
2021/04/21 04:12:35;;;;;;;4.60;2.30;;;;;;;15.09;66.26;100039.06;4960351;28;20050;-76
2021/04/21 04:15:02;;;;;;;4.90;2.37;;;;;;;15.17;65.89;100043.88;4964019;28;20050;-76
2021/04/21 04:17:31;;;;;;;3.77;2.20;;;;;;;15.11;65.81;100026.34;4956649;28;20062;-77
2021/04/21 04:20:00;;;;;;;3.83;2.03;;;;;;;15.33;65.79;100038.69;4962083;28;20055;-77
2021/04/21 04:22:30;;;;;;;6.13;2.27;;;;;;;15.33;65.67;100022.63;4958974;28;20057;-78
2021/04/21 04:24:57;;;;;;;6.82;2.35;;;;;;;15.32;65.61;100015.34;4964091;28;20125;-77
2021/04/21 04:27:26;;;;;;;5.37;2.13;;;;;;;15.41;65.58;100024.63;4958008;28;20130;-77
2021/04/21 04:29:53;;;;;;;5.90;2.30;;;;;;;15.30;65.76;100022.44;4966242;28;20043;-75
2021/04/21 04:32:21;;;;;;;4.13;2.30;;;;;;;15.30;66.07;100011.19;4964738;28;20489;-72
2021/04/21 04:34:57;;;;;;;6.80;2.33;;;;;;;15.31;65.96;100013.66;4961199;28;20440;-72
2021/04/21 04:37:25;;;;;;;3.27;2.00;;;;;;;15.34;65.78;100013.00;4959026;28;20046;-74
2021/04/21 04:39:52;;;;;;;6.33;2.47;;;;;;;15.37;65.83;100017.16;4960670;28;20062;-68
2021/04/21 04:42:19;;;;;;;9.13;2.33;;;;;;;15.23;66.21;99989.16;4962400;28;20065;-67
2021/04/21 04:44:48;;;;;;;6.27;2.60;;;;;;;15.11;66.09;99986.13;4967801;28;20050;-73
2021/04/21 04:47:22;;;;;;;3.33;2.03;;;;;;;15.23;65.89;100008.84;4960153;28;20949;-71
2021/04/21 04:49:58;;;;;;;3.60;2.13;;;;;;;15.29;65.97;100004.75;4966018;28;20050;-73
2021/04/21 04:52:26;;;;;;;6.57;2.30;;;;;;;15.34;65.97;100007.38;4967815;28;20065;-69
2021/04/21 04:54:54;;;;;;;4.70;2.80;;;;;;;15.29;65.83;99987.88;4962475;28;20443;-79
2021/04/21 04:57:21;;;;;;;5.50;2.20;;;;;;;15.31;66.10;100008.03;4961194;28;20495;-76
2021/04/21 04:59:48;;;;;;;4.00;1.97;;;;;;;15.15;66.11;99987.97;4962297;28;20051;-74
2021/04/21 05:02:16;;;;;;;5.93;2.37;;;;;;;15.13;66.49;99997.88;4963721;28;20055;-71
2021/04/21 05:04:57;;;;;;;7.45;2.40;;;;;;;15.10;66.64;100001.34;4964971;28;20047;-71
2021/04/21 05:07:35;;;;;;;5.78;2.30;;;;;;;15.04;66.64;99997.00;4960353;28;20143;-69
2021/04/21 05:10:05;;;;;;;3.10;2.13;;;;;;;15.05;66.66;99998.69;4959804;28;20061;-75
2021/04/21 05:12:37;;;;;;;6.27;2.30;;;;;;;15.19;66.48;100004.22;4960468;28;22122;-70
2021/04/21 05:15:05;;;;;;;3.00;2.13;;;;;;;15.19;66.52;100009.84;4960169;28;20050;-69
2021/04/21 05:17:32;;;;;;;4.00;2.20;;;;;;;15.13;66.58;100009.13;4963803;28;20052;-75
2021/04/21 05:20:30;;;;;;;4.50;2.50;;;;;;;15.06;66.65;100000.34;4959041;28;20046;-83
2021/04/21 05:23:17;;;;;;;5.67;2.10;;;;;;;15.02;66.84;100002.16;4960855;28;20047;-74
2021/04/21 05:25:47;;;;;;;7.83;2.40;;;;;;;14.92;67.06;100001.28;4958264;28;20054;-74
2021/04/21 05:28:47;;;;;;;6.93;2.67;;;;;;;14.89;67.16;100001.09;4964584;28;20141;-73
2021/04/21 05:31:59;;;;;;;3.45;2.13;;;;;;;14.45;67.52;99940.97;4960406;28;20332;-77
2021/04/21 05:34:43;;;;;;;3.63;1.93;;;;;;;14.72;67.84;100001.81;4940585;28;20055;-70
2021/04/21 05:37:31;;;;;;;7.93;2.00;;;;;;;14.68;68.09;99995.19;4961358;28;20042;-66
2021/04/21 05:40:49;;;;;;;3.73;1.63;;;;;;;14.63;68.13;99998.13;4963942;28;20089;-64
2021/04/21 05:43:52;;;;;;;5.40;2.63;;;;;;;14.63;68.14;99998.13;4960952;28;20300;-67
2021/04/21 05:46:36;;;;;;;5.63;1.93;;;;;;;14.60;68.23;99998.78;4956495;28;20122;-68
2021/04/21 05:49:15;;;;;;;8.40;1.83;;;;;;;14.58;68.14;99998.28;4964705;28;20151;-71
2021/04/21 05:51:50;;;;;;;4.77;2.47;;;;;;;14.66;68.09;100001.13;4962517;28;20053;-65
2021/04/21 05:54:45;;;;;;;3.23;2.07;;;;;;;14.66;68.07;100003.09;4962987;28;20456;-65
2021/04/21 05:57:24;;;;;;;4.27;2.10;;;;;;;14.63;68.33;100006.56;4963132;28;20043;-63
2021/04/21 06:00:08;;;;;;;4.03;2.60;;;;;;;14.50;68.87;99999.03;4960495;28;20050;-66
2021/04/21 06:02:35;;;;;;;3.67;2.13;;;;;;;14.37;69.12;99993.13;4963620;28;20051;-66
2021/04/21 06:05:12;;;;;;;3.00;1.63;;;;;;;14.38;69.32;99996.78;4962638;28;20043;-66
2021/04/21 06:07:39;;;;;;;6.40;2.30;;;;;;;14.01;69.43;99947.44;4958309;28;20448;-65
2021/04/21 06:10:27;;;;;;;6.57;2.23;;;;;;;14.27;69.67;100001.81;4966006;28;20049;-66
2021/04/21 06:13:02;;;;;;;4.87;2.17;;;;;;;14.30;69.56;100003.16;4962800;28;20484;-68
2021/04/21 06:15:31;;;;;;;4.80;2.23;;;;;;;14.38;69.35;100003.22;4958510;28;20043;-66
2021/04/21 06:17:59;;;;;;;3.03;1.90;;;;;;;14.24;69.48;99996.84;4959030;28;20047;-68
2021/04/21 06:20:37;;;;;;;6.57;2.80;;;;;;;14.23;70.14;100009.22;4957879;28;20155;-65
2021/04/21 06:23:10;;;;;;;3.90;2.10;;;;;;;14.26;70.03;100017.03;4963524;28;20049;-68
2021/04/21 06:25:42;;;;;;;6.83;3.40;;;;;;;14.11;70.37;99992.09;4959265;28;20044;-67
2021/04/21 06:28:20;;;;;;;5.53;3.00;;;;;;;14.17;70.16;99996.47;4965907;28;20051;-67
2021/04/21 06:31:01;;;;;;;5.03;3.27;;;;;;;14.28;69.90;99999.84;4959839;28;20049;-67
2021/04/21 06:33:35;;;;;;;7.30;3.87;;;;;;;14.30;70.29;100006.81;4962928;28;20047;-66
2021/04/21 06:36:04;;;;;;;6.90;3.50;;;;;;;14.42;70.32;100020.25;4962021;28;20523;-67
2021/04/21 06:38:35;;;;;;;7.67;3.40;;;;;;;14.37;70.27;100009.16;4959150;28;20050;-68
2021/04/21 06:41:01;;;;;;;5.40;1.93;;;;;;;14.32;70.41;100004.50;4963258;28;20503;-67
2021/04/21 06:43:30;;;;;;;7.30;3.73;;;;;;;14.33;70.64;100020.22;4963075;28;20055;-67
2021/04/21 06:46:00;;;;;;;5.72;2.80;;;;;;;14.33;70.59;100019.38;4963789;28;20047;-67
2021/04/21 06:48:36;;;;;;;4.55;2.50;;;;;;;14.32;70.60;100003.66;4961964;28;20481;-67
2021/04/21 06:51:16;;;;;;;5.63;3.27;;;;;;;14.35;70.62;100009.47;4966914;28;20053;-68
2021/04/21 06:53:44;;;;;;;4.23;2.70;;;;;;;14.49;70.32;100017.00;4961269;28;20055;-66
2021/04/21 06:56:13;;;;;;;9.33;2.90;;;;;;;14.43;70.67;100008.72;4959430;28;20050;-66
2021/04/21 06:58:40;;;;;;;4.23;2.60;;;;;;;14.45;70.70;100012.03;4960998;28;20047;-66
2021/04/21 07:01:30;;;;;;;5.03;3.13;;;;;;;14.42;70.63;100009.84;4958329;28;20057;-67
2021/04/21 07:04:15;;;;;;;5.10;2.70;;;;;;;14.53;70.44;100018.06;4961363;28;20145;-68
2021/04/21 07:06:47;;;;;;;;;;;;;;;14.53;70.56;100012.44;4963893;28;20133;-67
2021/04/21 07:09:19;;;;;;;6.67;2.47;;;;;;;14.11;70.88;99972.44;4960789;28;20367;-68
2021/04/21 07:11:58;;;;;;;3.57;1.97;;;;;;;14.36;71.02;100015.94;4959691;28;20460;-66
2021/04/21 07:14:27;;;;;;;3.07;1.60;;;;;;;14.39;70.83;100015.28;4954451;28;20469;-66
2021/04/21 07:16:54;;;;;;;4.27;2.40;;;;;;;14.49;70.72;100011.38;4953080;28;20043;-67
2021/04/21 07:19:25;;;;;;;6.07;2.93;;;;;;;14.54;70.85;100012.13;4956790;28;20046;-67
2021/04/21 07:21:53;;;;;;;6.90;2.07;;;;;;;14.56;70.70;100006.19;4953454;28;20093;-67
2021/04/21 07:24:29;;;;;;;5.47;2.10;;;;;;;14.52;70.89;100013.59;4953244;28;20051;-68
2021/04/21 07:26:56;;;;;;;5.10;2.60;;;;;;;14.57;70.79;100011.50;4953049;28;20404;-66
2021/04/21 07:29:24;;;;;;;7.20;3.30;;;;;;;14.54;70.72;99991.63;4953291;28;20056;-67
2021/04/21 07:31:52;;;;;;;4.10;2.23;;;;;;;14.69;70.33;100002.47;4953652;28;20048;-67
2021/04/21 07:34:33;;;;;;;10.13;4.13;;;;;;;14.74;70.32;100005.16;4953371;28;20047;-68
2021/04/21 07:37:01;;;;;;;4.90;1.80;;;;;;;14.80;70.23;100001.06;4955012;28;20043;-66
2021/04/21 07:39:37;;;;;;;9.87;3.23;;;;;;;14.75;70.17;100006.81;4952587;28;20048;-66
2021/04/21 07:42:19;;;;;;;5.63;3.50;;;;;;;14.99;69.64;99997.16;4953108;28;20054;-68
2021/04/21 07:44:51;;;;;;;2.55;1.73;;;;;;;14.85;70.10;100005.69;4959197;28;20047;-67
2021/04/21 07:47:24;;;;;;;5.60;2.43;;;;;;;14.80;70.01;99991.78;4955386;28;20055;-67
2021/04/21 07:49:59;;;;;;;5.03;3.10;;;;;;;14.87;70.06;99995.81;4953511;28;20046;-68
2021/04/21 07:52:33;;;;;;;5.87;3.23;;;;;;;15.03;69.56;99992.56;4954881;28;20059;-68
2021/04/21 07:55:19;;;;;;;6.30;3.33;;;;;;;15.13;69.54;99984.66;4957121;28;20054;-67
2021/04/21 07:57:59;;;;;;;8.90;3.50;;;;;;;15.29;68.97;99990.69;4956822;28;20043;-67
2021/04/21 08:00:31;;;;;;;7.03;3.30;;;;;;;15.40;68.75;99988.38;4962512;28;20043;-67
2021/04/21 08:03:00;;;;;;;8.43;3.27;;;;;;;15.61;68.35;99995.06;4966997;28;20047;-67
2021/04/21 08:05:28;;;;;;;11.00;4.47;;;;;;;15.68;67.89;99983.34;4971113;28;20514;-66
2021/04/21 08:08:01;;;;;;;6.67;3.63;;;;;;;15.75;67.85;99991.31;4961483;28;20127;-67
2021/04/21 08:10:32;;;;;;;9.73;4.40;;;;;;;15.82;67.62;99984.03;4966623;28;20051;-69
2021/04/21 08:13:00;;;;;;;9.13;5.00;;;;;;;15.93;67.18;99978.06;4959810;28;20066;-69
2021/04/21 08:15:30;;;;;;;10.80;5.67;;;;;;;15.96;66.96;99989.50;4956347;28;20444;-67
2021/04/21 08:17:56;;;;;;;;;;;;;;;16.46;66.97;99979.69;4957075;28;20048;-67
2021/04/21 08:20:34;;;;;;;10.33;5.90;;;;;;;16.58;66.10;99974.19;4957754;28;19930;-66
2021/04/21 08:23:21;;;;;;;9.53;6.23;;;;;;;16.91;66.08;99974.47;4964231;28;20047;-66
2021/04/21 08:25:49;;;;;;;17.67;8.03;;;;;;;17.35;66.48;99974.28;4956015;28;20489;-67
2021/04/21 08:28:16;;;;;;;22.80;9.97;;;;;;;17.83;66.14;99976.66;4956948;28;20042;-67
2021/04/21 08:30:56;;;;;;;30.47;13.17;;;;;;;18.36;66.68;99985.53;4956086;28;20442;-67
2021/04/21 08:33:23;;;;;;;25.77;9.00;;;;;;;18.49;65.56;99975.91;4955887;28;20047;-66
2021/04/21 08:35:49;;;;;;;10.25;6.30;;;;;;;18.35;64.29;99975.41;4955830;28;20134;-67
2021/04/21 08:38:16;;;;;;;8.82;5.38;;;;;;;18.04;63.56;99956.88;4955514;28;20412;-68
2021/04/21 08:40:43;;;;;;;14.75;6.78;;;;;;;18.17;64.61;99967.09;4960998;28;20047;-69
2021/04/21 08:43:10;;;;;;;13.13;5.63;;;;;;;18.63;63.61;99973.63;4955256;28;20050;-68
2021/04/21 08:45:36;;;;;;;9.32;5.78;;;;;;;18.90;62.77;99971.34;4959942;28;20047;-67
2021/04/21 08:48:04;;;;;;;7.28;4.18;;;;;;;18.83;62.07;99968.28;4960562;28;20419;-69
2021/04/21 08:50:41;;;;;;;7.78;5.22;;;;;;;18.54;62.37;99967.22;4959161;28;20055;-69
2021/04/21 08:53:09;;;;;;;4.80;3.40;;;;;;;18.37;62.10;99956.94;4955291;28;20552;-68
2021/04/21 08:55:37;;;;;;;8.88;3.58;;;;;;;18.09;61.44;99965.16;4955984;28;20053;-68
2021/04/21 08:58:05;;;;;;;5.53;4.20;;;;;;;17.74;61.39;99956.09;4961909;28;20133;-68
2021/04/21 09:00:31;;;;;;;9.48;4.40;;;;;;;17.63;62.10;99954.84;4957827;28;20047;-67
2021/04/21 09:03:00;;;;;;;10.77;3.33;;;;;;;18.05;61.80;99954.88;4964259;28;20043;-68
2021/04/21 09:05:26;;;;;;;6.93;3.20;;;;;;;18.38;62.03;99954.91;4958210;28;20054;-70
2021/04/21 09:07:53;;;;;;;5.60;3.00;;;;;;;18.79;60.69;99959.66;4956599;28;20293;-68
2021/04/21 09:10:20;;;;;;;5.57;3.75;;;;;;;18.55;60.25;99951.91;4962485;28;20525;-68
2021/04/21 09:12:47;;;;;;;9.65;4.47;;;;;;;18.43;59.96;99949.06;4958160;28;20058;-69
2021/04/21 09:15:15;;;;;;;8.55;4.03;;;;;;;18.30;60.20;99953.00;4957412;28;20515;-68
2021/04/21 09:17:56;;;;;;;4.95;2.70;;;;;;;18.55;60.68;99963.22;4963575;28;20043;-69
2021/04/21 09:20:25;;;;;;;7.32;3.97;;;;;;;19.05;59.26;99965.03;4956250;28;20047;-68
2021/04/21 09:23:14;;;;;;;5.15;3.15;;;;;;;19.23;59.71;99965.63;4963174;28;20051;-68
2021/04/21 09:25:58;;;;;;;5.22;3.10;;;;;;;18.99;58.59;99943.78;4955657;28;20404;-68
2021/04/21 09:28:24;;;;;;;3.55;2.72;;;;;;;18.82;58.61;99955.31;4957048;28;20111;-68
2021/04/21 09:30:58;;;;;;;3.50;1.90;;;;;;;18.98;58.46;99964.78;4958316;28;20045;-68
2021/04/21 09:33:26;;;;;;;5.65;1.92;;;;;;;19.40;58.12;99956.88;4956822;28;20069;-68
2021/04/21 09:35:53;;;;;;;3.58;1.80;;;;;;;19.55;57.66;99954.50;4962638;28;20044;-68
2021/04/21 09:38:27;;;;;;;3.60;1.45;;;;;;;19.71;57.23;99957.47;4956968;28;20051;-69
2021/04/21 09:41:02;;;;;;;3.92;1.42;;;;;;;19.86;56.17;99962.41;4959960;28;20047;-69
2021/04/21 09:43:30;;;;;;;2.10;1.50;;;;;;;19.53;55.67;99968.22;4965479;28;20046;-69
2021/04/21 09:46:03;;;;;;;2.20;0.98;;;;;;;19.62;55.95;99955.59;4958660;28;20054;-69
2021/04/21 09:48:37;;;;;;;2.40;1.40;;;;;;;19.61;54.98;99953.91;4961582;28;20055;-67
2021/04/21 09:51:13;;;;;;;2.42;1.67;;;;;;;19.51;55.27;99948.72;4962949;28;20050;-68
2021/04/21 09:53:41;;;;;;;3.00;1.42;;;;;;;19.51;54.89;99960.06;4960995;28;20141;-68
2021/04/21 09:56:09;;;;;;;4.78;1.38;;;;;;;19.17;55.27;99956.53;4960290;28;20519;-68
2021/04/21 09:58:39;;;;;;;2.25;1.48;;;;;;;18.93;55.51;99959.34;4954279;28;20054;-68
2021/04/21 10:01:29;;;;;;;3.85;1.98;;;;;;;19.32;56.02;99965.53;4962678;28;20570;-68
2021/04/21 10:04:16;;;;;;;5.35;2.25;;;;;;;19.44;55.63;99951.34;4959060;28;20137;-68
2021/04/21 10:06:50;;;;;;;7.40;2.90;;;;;;;19.32;55.55;99963.50;4955434;28;20122;-68
2021/04/21 10:09:29;;;;;;;6.13;3.03;;;;;;;19.39;56.11;99957.25;4964315;28;20137;-69
2021/04/21 10:12:21;;;;;;;4.05;2.25;;;;;;;19.28;56.73;99956.91;4956477;28;20058;-68
2021/04/21 10:15:01;;;;;;;4.18;2.45;;;;;;;19.33;56.39;99958.66;4955827;28;20046;-68
2021/04/21 10:17:30;;;;;;;5.47;2.75;;;;;;;19.20;56.55;99957.84;4962876;28;20082;-69
2021/04/21 10:20:00;;;;;;;4.28;2.40;;;;;;;19.08;56.48;99938.84;4953139;28;20484;-67
2021/04/21 10:22:27;;;;;;;3.50;2.05;;;;;;;19.30;56.63;99953.72;4939259;28;20346;-68
2021/04/21 10:24:53;;;;;;;6.78;2.78;;;;;;;19.39;56.68;99940.28;4954152;28;20039;-67
2021/04/21 10:27:20;;;;;;;3.65;2.15;;;;;;;19.57;56.31;99938.81;4957176;28;20039;-68
2021/04/21 10:29:48;;;;;;;4.00;2.58;;;;;;;19.49;55.90;99938.97;4956907;28;20134;-68
2021/04/21 10:32:15;;;;;;;8.20;3.05;;;;;;;19.18;56.64;99952.53;4954960;28;20493;-69
2021/04/21 10:34:47;;;;;;;5.38;2.25;;;;;;;19.11;57.28;99940.97;4956396;28;20440;-67
2021/04/21 10:37:15;;;;;;;2.75;2.08;;;;;;;19.18;56.63;99941.22;4953997;28;20043;-68
2021/04/21 10:39:46;;;;;;;4.68;2.35;;;;;;;19.09;56.82;99943.31;4962878;28;20054;-69
2021/04/21 10:42:16;;;;;;;2.60;1.55;;;;;;;19.11;57.33;99940.97;4962729;28;20043;-69
2021/04/21 10:44:46;;;;;;;2.47;1.80;;;;;;;18.91;57.27;99941.91;4957191;28;20054;-68
2021/04/21 10:47:17;;;;;;;3.97;1.40;;;;;;;18.78;57.51;99943.88;4961211;28;20047;-69
2021/04/21 10:50:04;;;;;;;1.58;0.90;;;;;;;18.52;57.70;99941.28;4955787;28;20047;-68
2021/04/21 10:52:30;;;;;;;1.67;1.20;;;;;;;18.37;58.31;99944.78;4953718;28;20411;-68
2021/04/21 10:54:58;;;;;;;1.52;0.88;;;;;;;18.37;58.69;99939.16;4955937;28;20051;-69
2021/04/21 10:57:43;;;;;;;2.10;1.25;;;;;;;18.55;58.29;99937.78;4963357;28;20054;-67
2021/04/21 11:00:16;;;;;;;2.08;1.10;;;;;;;18.77;57.76;99935.72;4955913;28;20047;-70
2021/04/21 11:03:00;;;;;;;1.95;1.10;;;;;;;18.89;58.11;99938.59;4957741;28;20492;-69
2021/04/21 11:05:52;;;;;;;2.63;0.90;;;;;;;18.89;57.86;99944.25;4959578;28;20047;-67
2021/04/21 11:08:21;;;;;;;2.90;1.23;;;;;;;18.64;58.05;99924.38;4955669;28;20047;-69
2021/04/21 11:10:54;;;;;;;2.95;1.55;;;;;;;18.64;58.20;99932.84;4954877;28;20051;-66
2021/04/21 11:13:23;;;;;;;1.70;1.23;;;;;;;18.52;58.39;99930.00;4953973;28;20047;-68
2021/04/21 11:15:51;;;;;;;2.88;0.80;;;;;;;18.65;58.97;99928.84;4953828;28;20050;-68
2021/04/21 11:18:31;;;;;;;1.23;0.63;;;;;;;18.88;58.54;99932.09;4959488;28;20046;-67
2021/04/21 11:20:58;;;;;;;2.47;1.20;;;;;;;18.94;58.23;99924.22;4960059;28;20057;-67
2021/04/21 11:24:05;;;;;;;3.15;1.42;;;;;;;18.74;58.93;99922.31;4958518;28;20506;-67
2021/04/21 11:26:51;;;;;;;1.88;1.05;;;;;;;18.61;58.57;99925.06;4957514;28;20051;-68
2021/04/21 11:29:27;;;;;;;2.55;1.10;;;;;;;18.50;59.18;99921.06;4956990;28;20129;-69
2021/04/21 11:31:53;;;;;;;3.03;1.63;;;;;;;18.39;59.14;99929.16;4962142;28;20054;-67
2021/04/21 11:34:30;;;;;;;1.77;1.20;;;;;;;18.35;59.13;99918.88;4960221;28;20101;-69
2021/04/21 11:36:59;;;;;;;2.60;1.40;;;;;;;18.29;59.47;99918.28;4957354;28;20378;-69
2021/04/21 11:39:44;;;;;;;3.83;1.70;;;;;;;18.23;59.63;99908.34;4964603;28;20051;-68
2021/04/21 11:42:33;;;;;;;3.58;1.52;;;;;;;18.31;59.78;99907.44;4965997;28;20133;-68
2021/04/21 11:45:09;;;;;;;3.50;1.45;;;;;;;18.38;59.74;99907.69;4956798;28;20047;-69
2021/04/21 11:47:38;;;;;;;3.55;1.63;;;;;;;18.35;60.06;99899.91;4956402;28;20048;-70
2021/04/21 11:50:07;;;;;;;5.03;2.20;;;;;;;18.44;60.60;99902.66;4956417;28;20054;-68
2021/04/21 11:52:42;;;;;;;4.65;1.92;;;;;;;18.60;60.11;99905.63;4962712;28;20129;-69
2021/04/21 11:55:17;;;;;;;3.08;1.40;;;;;;;18.51;60.28;99888.75;4958228;28;20040;-69
2021/04/21 11:57:49;;;;;;;1.83;1.17;;;;;;;18.55;60.89;99897.38;4956859;28;20393;-68
2021/04/21 12:00:16;;;;;;;5.95;1.30;;;;;;;18.20;60.38;99883.63;4956819;28;20073;-68
2021/04/21 12:02:43;;;;;;;2.65;1.63;;;;;;;17.58;61.35;99885.31;4960845;28;20051;-68